Time;durP1;ratioP1;P1;durP2;ratioP2;P2;SDS_P1;SDS_P2;PMS_P1;PMS_P2;Temp;Humidity;BMP_temperature;BMP_pressure;BME280_temperature;BME280_humidity;BME280_pressure;Samples;Min_cycle;Max_cycle;Signal;HPM_P1;HPM_P2
2022/05/08 00:01:35;;;;;;;;;;;9.20;99.90;;;;;;5056442;28;20338;-52
2022/05/08 00:04:02;;;;;;;;;;;9.20;99.90;;;;;;5062877;28;19925;-47
2022/05/08 00:06:27;;;;;;;;;;;9.10;99.90;;;;;;5044786;28;19925;-46
2022/05/08 00:08:53;;;;;;;;;;;9.00;99.90;;;;;;5068623;28;19979;-47
2022/05/08 00:11:18;;;;;;;;;;;9.00;99.90;;;;;;5063720;28;19989;-47
2022/05/08 00:13:45;;;;;;;;;;;8.90;99.90;;;;;;5066386;28;20340;-46
2022/05/08 00:16:11;;;;;;;;;;;8.90;99.90;;;;;;5063899;28;19971;-46
2022/05/08 00:18:36;;;;;;;;;;;8.90;99.90;;;;;;5067581;28;19929;-47
2022/05/08 00:21:02;;;;;;;;;;;8.80;99.90;;;;;;5062575;28;20012;-48
2022/05/08 00:23:27;;;;;;;;;;;8.80;99.90;;;;;;5069079;28;19955;-50
2022/05/08 00:25:53;;;;;;;;;;;8.70;99.90;;;;;;5069194;28;19929;-51
2022/05/08 00:28:18;;;;;;;;;;;8.70;99.90;;;;;;5065279;28;19936;-47
2022/05/08 00:30:44;;;;;;;;;;;8.60;99.90;;;;;;5064528;28;19924;-47
2022/05/08 00:33:09;;;;;;;;;;;8.70;99.90;;;;;;5067370;28;19943;-47
2022/05/08 00:35:35;;;;;;;;;;;8.70;99.90;;;;;;5061463;28;19933;-47
2022/05/08 00:38:00;;;;;;;;;;;8.60;99.90;;;;;;5061110;28;19929;-49
2022/05/08 00:40:26;;;;;;;;;;;8.60;99.90;;;;;;5067075;28;20398;-49
2022/05/08 00:42:51;;;;;;;;;;;8.50;99.90;;;;;;5068246;28;20328;-46
2022/05/08 00:45:16;;;;;;;;;;;8.40;99.90;;;;;;5049965;28;19940;-47
2022/05/08 00:47:42;;;;;;;;;;;8.40;99.90;;;;;;5068254;28;20274;-47
2022/05/08 00:50:08;;;;;;;;;;;8.30;99.90;;;;;;5036807;28;19935;-48
2022/05/08 00:52:34;;;;;;;;;;;8.30;99.90;;;;;;5067175;28;19931;-47
2022/05/08 00:55:00;;;;;;;;;;;8.30;99.90;;;;;;5066860;28;20034;-46
2022/05/08 00:57:26;;;;;;;;;;;8.30;99.90;;;;;;5062515;28;20011;-48
2022/05/08 00:59:52;;;;;;;;;;;8.30;99.90;;;;;;5064154;28;19925;-46
2022/05/08 01:02:17;;;;;;;;;;;8.30;99.90;;;;;;5062518;28;20085;-46
2022/05/08 01:04:43;;;;;;;;;;;8.30;99.90;;;;;;5065156;28;19924;-49
2022/05/08 01:07:10;;;;;;;;;;;8.30;99.90;;;;;;5046648;28;20022;-48
2022/05/08 01:09:35;;;;;;;;;;;8.30;99.90;;;;;;5066397;28;19924;-47
2022/05/08 01:12:01;;;;;;;;;;;8.30;99.90;;;;;;5063659;28;19940;-49
2022/05/08 01:14:26;;;;;;;;;;;8.30;99.90;;;;;;5067517;28;19928;-46
2022/05/08 01:16:52;;;;;;;;;;;8.40;99.90;;;;;;5064890;28;20351;-49
2022/05/08 01:19:17;;;;;;;;;;;8.40;99.90;;;;;;5069104;28;20015;-47
2022/05/08 01:21:43;;;;;;;;;;;8.40;99.90;;;;;;5061284;28;20353;-46
2022/05/08 01:24:09;;;;;;;;;;;8.40;99.90;;;;;;5065568;28;19944;-49
2022/05/08 01:26:35;;;;;;;;;;;8.40;99.90;;;;;;5045054;28;19933;-49
2022/05/08 01:29:01;;;;;;;;;;;8.40;99.90;;;;;;5063813;28;19928;-48
2022/05/08 01:31:27;;;;;;;;;;;8.40;99.90;;;;;;5058996;28;20375;-47
2022/05/08 01:33:52;;;;;;;;;;;8.50;99.90;;;;;;5060387;28;19972;-47
2022/05/08 01:36:18;;;;;;;;;;;8.40;99.90;;;;;;5068590;28;19943;-48
2022/05/08 01:38:43;;;;;;;;;;;8.40;99.90;;;;;;5062127;28;19925;-48
2022/05/08 01:41:09;;;;;;;;;;;8.40;99.90;;;;;;5062954;28;20026;-49
2022/05/08 01:43:37;;;;;;;;;;;8.30;99.90;;;;;;5061579;28;19971;-48
2022/05/08 01:46:03;;;;;;;;;;;8.30;99.90;;;;;;5061599;28;19994;-48
2022/05/08 01:48:30;;;;;;;;;;;8.30;99.90;;;;;;5063886;28;19963;-46
2022/05/08 01:50:57;;;;;;;;;;;8.20;99.90;;;;;;5092133;22;19928;-44
2022/05/08 01:53:23;;;;;;;;;;;8.30;99.90;;;;;;5069361;28;20327;-44
2022/05/08 01:55:53;;;;;;;;;;;8.20;99.90;;;;;;5087925;28;21169;-46
2022/05/08 01:58:19;;;;;;;;;;;8.20;99.90;;;;;;5085855;28;19931;-44
2022/05/08 02:00:45;;;;;;;;;;;8.10;99.90;;;;;;5088743;28;19928;-48
2022/05/08 02:03:12;;;;;;;;;;;8.10;99.90;;;;;;5084975;28;19979;-44
2022/05/08 02:05:39;;;;;;;;;;;8.00;99.90;;;;;;5083494;28;19936;-45
2022/05/08 02:08:04;;;;;;;;;;;8.00;99.90;;;;;;5088512;28;19935;-46
2022/05/08 02:10:30;;;;;;;;;;;7.90;99.90;;;;;;5085402;28;19925;-45
2022/05/08 02:12:56;;;;;;;;;;;7.90;99.90;;;;;;5086163;28;20323;-49
2022/05/08 02:15:21;;;;;;;;;;;7.80;99.90;;;;;;5089942;28;20401;-46
2022/05/08 02:17:47;;;;;;;;;;;7.80;99.90;;;;;;5088375;28;19930;-45
2022/05/08 02:20:12;;;;;;;;;;;7.70;99.90;;;;;;5087719;28;20397;-51
2022/05/08 02:22:38;;;;;;;;;;;7.70;99.90;;;;;;5084897;28;19947;-45
2022/05/08 02:25:04;;;;;;;;;;;7.60;99.90;;;;;;5087240;28;19927;-47
2022/05/08 02:27:40;;;;;;;;;;;7.60;99.90;;;;;;5068120;28;19925;-46
2022/05/08 02:30:06;;;;;;;;;;;7.50;99.90;;;;;;5084100;28;19924;-45
2022/05/08 02:32:31;;;;;;;;;;;7.50;99.90;;;;;;5088734;28;20381;-45
2022/05/08 02:34:57;;;;;;;;;;;7.50;99.90;;;;;;5085485;28;19924;-45
2022/05/08 02:37:22;;;;;;;;;;;7.40;99.90;;;;;;5085726;28;20054;-48
2022/05/08 02:39:48;;;;;;;;;;;7.40;99.90;;;;;;5084128;28;19935;-45
2022/05/08 02:42:13;;;;;;;;;;;7.30;99.90;;;;;;5088180;28;19935;-49
2022/05/08 02:44:39;;;;;;;;;;;7.40;99.90;;;;;;5087605;28;19924;-46
2022/05/08 02:47:04;;;;;;;;;;;7.30;99.90;;;;;;5087645;28;20317;-47
2022/05/08 02:49:30;;;;;;;;;;;7.20;99.90;;;;;;5090088;28;19924;-46
2022/05/08 02:51:55;;;;;;;;;;;7.20;99.90;;;;;;5085672;28;19925;-45
2022/05/08 02:54:20;;;;;;;;;;;7.20;99.90;;;;;;5085694;28;20227;-46
2022/05/08 02:59:30;;;;;;;;;;;7.10;99.90;;;;;;5087411;28;19932;-47
2022/05/08 03:01:56;;;;;;;;;;;7.10;99.90;;;;;;5083996;28;19928;-51
2022/05/08 03:04:21;;;;;;;;;;;7.00;99.90;;;;;;5086463;28;19924;-47
2022/05/08 03:06:47;;;;;;;;;;;7.00;99.90;;;;;;5083365;28;20465;-47
2022/05/08 03:09:12;;;;;;;;;;;7.00;99.90;;;;;;5081823;28;19936;-46
2022/05/08 03:11:38;;;;;;;;;;;7.00;99.90;;;;;;5085609;28;19946;-46
2022/05/08 03:14:04;;;;;;;;;;;6.90;99.90;;;;;;5088494;28;19924;-46
2022/05/08 03:16:29;;;;;;;;;;;6.90;99.90;;;;;;5085710;28;19935;-47
2022/05/08 03:18:55;;;;;;;;;;;6.90;99.90;;;;;;5087477;28;19924;-46
2022/05/08 03:21:21;;;;;;;;;;;6.90;99.90;;;;;;5088725;28;19924;-46
2022/05/08 03:23:47;;;;;;;;;;;6.90;99.90;;;;;;5084731;28;19932;-48
2022/05/08 03:26:14;;;;;;;;;;;6.90;99.90;;;;;;5084324;28;19924;-46
2022/05/08 03:28:39;;;;;;;;;;;6.80;99.90;;;;;;5084124;28;19930;-47
2022/05/08 03:31:05;;;;;;;;;;;6.80;99.90;;;;;;5088248;28;20007;-46
2022/05/08 03:33:34;;;;;;;;;;;6.80;99.90;;;;;;5084648;28;19939;-46
2022/05/08 03:36:00;;;;;;;;;;;6.80;99.90;;;;;;5086100;28;20298;-45
2022/05/08 03:38:27;;;;;;;;;;;6.80;99.90;;;;;;5085225;28;19930;-45
2022/05/08 03:40:53;;;;;;;;;;;6.70;99.90;;;;;;5081765;28;19931;-48
2022/05/08 03:43:18;;;;;;;;;;;6.70;99.90;;;;;;5087638;28;19928;-45
2022/05/08 03:45:44;;;;;;;;;;;6.70;99.90;;;;;;5086919;28;19977;-46
2022/05/08 03:48:09;;;;;;;;;;;6.70;99.90;;;;;;5088176;28;20484;-50
2022/05/08 03:50:36;;;;;;;;;;;6.70;99.90;;;;;;5091366;28;19957;-47
2022/05/08 03:53:02;;;;;;;;;;;6.70;99.90;;;;;;5092388;28;19927;-46
2022/05/08 03:55:27;;;;;;;;;;;6.70;99.90;;;;;;5091662;28;21225;-48
2022/05/08 03:57:53;;;;;;;;;;;6.70;99.90;;;;;;5090252;28;19924;-45
2022/05/08 04:00:18;;;;;;;;;;;6.70;99.90;;;;;;5087783;28;19931;-46
2022/05/08 04:02:44;;;;;;;;;;;6.70;99.90;;;;;;5089048;28;19973;-45
2022/05/08 04:05:10;;;;;;;;;;;6.80;99.90;;;;;;5086343;28;19971;-47
2022/05/08 04:07:37;;;;;;;;;;;6.80;99.90;;;;;;5085343;28;19939;-45
2022/05/08 04:10:03;;;;;;;;;;;6.80;99.90;;;;;;5083352;28;20007;-46
2022/05/08 04:12:28;;;;;;;;;;;6.80;99.90;;;;;;5085586;28;20010;-46
2022/05/08 04:14:54;;;;;;;;;;;6.80;99.90;;;;;;5091669;28;19924;-45
2022/05/08 04:17:19;;;;;;;;;;;6.90;99.90;;;;;;5089753;28;19948;-45
2022/05/08 04:19:46;;;;;;;;;;;6.90;99.90;;;;;;5091374;28;19942;-45
2022/05/08 04:24:57;;;;;;;;;;;7.10;99.90;;;;;;5089929;28;20034;-46
2022/05/08 04:27:22;;;;;;;;;;;7.20;99.90;;;;;;5090622;28;19931;-49
2022/05/08 04:29:48;;;;;;;;;;;7.20;99.90;;;;;;5090091;28;19933;-46
2022/05/08 04:32:13;;;;;;;;;;;7.30;99.90;;;;;;5087692;28;19978;-46
2022/05/08 04:34:39;;;;;;;;;;;7.40;99.90;;;;;;5089357;28;20274;-45
2022/05/08 04:37:04;;;;;;;;;;;7.50;99.90;;;;;;5089515;28;19924;-45
2022/05/08 04:39:29;;;;;;;;;;;7.50;99.90;;;;;;5090898;28;19946;-46
2022/05/08 04:41:55;;;;;;;;;;;7.80;99.90;;;;;;5090494;28;19928;-46
2022/05/08 04:44:21;;;;;;;;;;;;;;;;;;5089291;28;19924;-46
2022/05/08 04:46:47;;;;;;;;;;;;;;;;;;5092110;28;20212;-48
2022/05/08 04:49:12;;;;;;;;;;;9.80;99.90;;;;;;5086290;28;20324;-46
2022/05/08 04:51:38;;;;;;;;;;;;;;;;;;5066828;28;19925;-45
2022/05/08 04:54:04;;;;;;;;;;;10.70;99.90;;;;;;5088899;28;19939;-46
2022/05/08 04:56:30;;;;;;;;;;;;;;;;;;5067869;28;20339;-46
2022/05/08 04:58:56;;;;;;;;;;;;;;;;;;5085740;28;20019;-45
2022/05/08 05:01:21;;;;;;;;;;;11.60;99.90;;;;;;5084185;28;19924;-46
2022/05/08 05:03:47;;;;;;;;;;;11.70;99.90;;;;;;5088683;28;20007;-46
2022/05/08 05:06:13;;;;;;;;;;;12.00;99.90;;;;;;5073047;28;19931;-46
2022/05/08 05:08:38;;;;;;;;;;;12.10;99.90;;;;;;5085863;28;19925;-46
2022/05/08 05:11:10;;;;;;;;;;;12.20;99.90;;;;;;5091125;28;19924;-46
2022/05/08 05:13:38;;;;;;;;;;;12.20;99.90;;;;;;5087003;28;19936;-45
2022/05/08 05:16:05;;;;;;;;;;;12.50;99.90;;;;;;5086693;28;20354;-46
2022/05/08 05:18:30;;;;;;;;;;;12.70;99.90;;;;;;5091804;28;19974;-45
2022/05/08 05:20:56;;;;;;;;;;;12.50;99.90;;;;;;5085280;28;20006;-46
2022/05/08 05:23:21;;;;;;;;;;;12.80;99.90;;;;;;5085365;28;19939;-46
2022/05/08 05:25:48;;;;;;;;;;;12.60;99.90;;;;;;5083728;28;19935;-46
2022/05/08 05:28:13;;;;;;;;;;;12.70;99.90;;;;;;5087300;28;20021;-45
2022/05/08 05:30:41;;;;;;;;;;;13.70;99.90;;;;;;5084145;28;19974;-45
2022/05/08 05:33:15;;;;;;;;;;;14.00;99.90;;;;;;5088613;28;19927;-45
2022/05/08 05:35:41;;;;;;;;;;;14.00;99.90;;;;;;5088162;28;19970;-45
2022/05/08 05:38:06;;;;;;;;;;;14.00;99.90;;;;;;5084340;28;19928;-45
2022/05/08 05:40:32;;;;;;;;;;;13.70;99.90;;;;;;5086594;28;19924;-47
2022/05/08 05:42:57;;;;;;;;;;;13.80;99.90;;;;;;5085364;28;20027;-46
2022/05/08 05:45:23;;;;;;;;;;;14.20;99.90;;;;;;5090776;28;19997;-50
2022/05/08 05:47:57;;;;;;;;;;;14.30;99.90;;;;;;5081257;28;20358;-49
2022/05/08 05:50:23;;;;;;;;;;;14.80;99.90;;;;;;5088082;28;20350;-46
2022/05/08 05:52:50;;;;;;;;;;;15.00;99.90;;;;;;5088791;28;19932;-45
2022/05/08 05:55:15;;;;;;;;;;;15.30;99.90;;;;;;5088815;28;20057;-45
2022/05/08 05:57:41;;;;;;;;;;;15.00;99.90;;;;;;5081049;28;20417;-45
2022/05/08 06:00:16;;;;;;;;;;;14.90;99.90;;;;;;5085550;28;19955;-45
2022/05/08 06:02:43;;;;;;;;;;;14.80;99.90;;;;;;5085803;28;20027;-48
2022/05/08 06:05:09;;;;;;;;;;;15.30;99.90;;;;;;5084414;28;20007;-49
2022/05/08 06:07:35;;;;;;;;;;;16.20;99.90;;;;;;5082616;28;19932;-46
2022/05/08 06:10:02;;;;;;;;;;;15.90;99.90;;;;;;5083986;28;20035;-47
2022/05/08 06:12:28;;;;;;;;;;;15.60;99.90;;;;;;5083983;28;20057;-46
2022/05/08 06:14:53;;;;;;;;;;;15.50;99.90;;;;;;5067895;28;20367;-50
2022/05/08 06:17:19;;;;;;;;;;;15.40;99.90;;;;;;5069810;28;20251;-47
2022/05/08 06:19:45;;;;;;;;;;;15.50;99.90;;;;;;5089301;28;19925;-45
2022/05/08 06:22:10;;;;;;;;;;;15.50;99.90;;;;;;5085429;28;19924;-47
2022/05/08 06:24:36;;;;;;;;;;;15.40;99.90;;;;;;5087417;28;19969;-47
2022/05/08 06:27:02;;;;;;;;;;;15.20;99.90;;;;;;5088629;28;19924;-48
2022/05/08 06:29:27;;;;;;;;;;;15.10;99.90;;;;;;5088465;28;19950;-46
2022/05/08 06:31:54;;;;;;;;;;;15.20;99.90;;;;;;5087301;28;19924;-46
2022/05/08 06:34:19;;;;;;;;;;;15.10;99.90;;;;;;5087030;28;19977;-46
2022/05/08 06:36:45;;;;;;;;;;;15.60;99.90;;;;;;5084312;28;19924;-48
2022/05/08 06:39:10;;;;;;;;;;;15.20;99.90;;;;;;5086000;28;19932;-47
2022/05/08 06:41:39;;;;;;;;;;;15.30;99.90;;;;;;5083476;28;20051;-47
2022/05/08 06:44:04;;;;;;;;;;;15.40;99.90;;;;;;5067569;28;19931;-46
2022/05/08 06:46:32;;;;;;;;;;;15.00;99.90;;;;;;5086925;28;19924;-47
2022/05/08 06:48:57;;;;;;;;;;;15.00;99.90;;;;;;5082435;28;19932;-48
2022/05/08 06:51:23;;;;;;;;;;;15.20;99.90;;;;;;5086844;28;19935;-48
2022/05/08 06:53:48;;;;;;;;;;;15.50;99.90;;;;;;5086666;28;20007;-46
2022/05/08 06:56:16;;;;;;;;;;;15.40;99.90;;;;;;5086706;28;19928;-47
2022/05/08 07:01:34;;;;;;;;;;;15.60;99.20;;;;;;5084059;28;20638;-48
2022/05/08 07:04:00;;;;;;;;;;;15.80;98.90;;;;;;5086087;28;20069;-48
2022/05/08 07:06:26;;;;;;;;;;;16.20;98.10;;;;;;5086026;28;19931;-45
2022/05/08 07:08:51;;;;;;;;;;;16.30;95.20;;;;;;5085771;28;19932;-49
2022/05/08 07:11:17;;;;;;;;;;;15.90;93.90;;;;;;5089585;28;19972;-46
2022/05/08 07:13:42;;;;;;;;;;;15.50;95.10;;;;;;5088371;28;19924;-48
2022/05/08 07:16:08;;;;;;;;;;;15.50;96.60;;;;;;5089917;28;19931;-45
2022/05/08 07:18:33;;;;;;;;;;;14.80;97.00;;;;;;5090824;28;19977;-44
2022/05/08 07:20:59;;;;;;;;;;;13.40;99.90;;;;;;5091282;28;20385;-47
2022/05/08 07:23:24;;;;;;;;;;;13.40;99.90;;;;;;5087786;28;19947;-47
2022/05/08 07:25:50;;;;;;;;;;;13.00;99.90;;;;;;5085730;28;19924;-45
2022/05/08 07:28:15;;;;;;;;;;;13.60;99.90;;;;;;5087663;28;19924;-48
2022/05/08 07:30:41;;;;;;;;;;;14.20;99.90;;;;;;5084119;28;19928;-47
2022/05/08 07:33:06;;;;;;;;;;;14.60;99.90;;;;;;5082067;28;19928;-45
2022/05/08 07:38:17;;;;;;;;;;;13.90;99.90;;;;;;5086085;28;20294;-46
2022/05/08 07:40:47;;;;;;;;;;;;;;;;;;5084783;28;19972;-49
2022/05/08 07:43:13;;;;;;;;;;;;;;;;;;5086264;28;20281;-47
2022/05/08 07:45:39;;;;;;;;;;;;;;;;;;5079208;28;19924;-48
2022/05/08 07:48:05;;;;;;;;;;;;;;;;;;5084502;28;20015;-49
2022/05/08 07:50:30;;;;;;;;;;;12.10;99.90;;;;;;5085753;28;19928;-49
2022/05/08 07:52:55;;;;;;;;;;;12.00;99.90;;;;;;5082753;28;19920;-49
2022/05/08 07:55:21;;;;;;;;;;;11.90;99.90;;;;;;5088836;28;20007;-48
2022/05/08 07:57:46;;;;;;;;;;;12.10;99.90;;;;;;5082220;28;20302;-48
2022/05/08 08:00:12;;;;;;;;;;;11.90;99.90;;;;;;5085960;28;19924;-48
2022/05/08 08:02:38;;;;;;;;;;;12.10;99.90;;;;;;5091002;28;20378;-50
2022/05/08 08:05:03;;;;;;;;;;;12.50;99.90;;;;;;5079353;28;20014;-48
2022/05/08 08:07:29;;;;;;;;;;;13.20;99.90;;;;;;5086275;28;19931;-51
2022/05/08 08:09:54;;;;;;;;;;;13.50;99.90;;;;;;5090504;28;19947;-50
2022/05/08 08:12:20;;;;;;;;;;;13.30;99.90;;;;;;5091504;28;19928;-53
2022/05/08 08:14:45;;;;;;;;;;;13.60;99.90;;;;;;5088142;28;20016;-50
2022/05/08 08:17:10;;;;;;;;;;;13.10;99.90;;;;;;5090323;28;20022;-48
2022/05/08 08:19:36;;;;;;;;;;;13.40;99.90;;;;;;5086679;28;19944;-50
2022/05/08 08:22:01;;;;;;;;;;;13.80;99.90;;;;;;5090845;28;20324;-48
2022/05/08 08:24:27;;;;;;;;;;;13.80;99.90;;;;;;5072020;28;19924;-48
2022/05/08 08:26:52;;;;;;;;;;;13.90;99.90;;;;;;5068214;28;19947;-51
2022/05/08 08:29:18;;;;;;;;;;;14.00;99.90;;;;;;5084022;28;20009;-49
2022/05/08 08:31:43;;;;;;;;;;;13.90;99.90;;;;;;5085228;28;19924;-51
2022/05/08 08:34:09;;;;;;;;;;;14.10;99.90;;;;;;5084097;28;19924;-52
2022/05/08 08:36:36;;;;;;;;;;;14.10;99.90;;;;;;5092441;28;19924;-51
2022/05/08 08:39:02;;;;;;;;;;;14.00;99.90;;;;;;5092697;28;19924;-49
2022/05/08 08:41:32;;;;;;;;;;;14.00;99.90;;;;;;5092973;28;19924;-49
2022/05/08 08:49:33;;;;;;;;;;;14.40;99.90;;;;;;5092850;28;19946;-48
2022/05/08 08:51:59;;;;;;;;;;;14.00;99.90;;;;;;5084924;28;19931;-50
2022/05/08 08:54:24;;;;;;;;;;;14.60;99.90;;;;;;5081839;28;19924;-50
2022/05/08 08:56:50;;;;;;;;;;;14.70;99.80;;;;;;5093691;28;20005;-49
2022/05/08 08:59:15;;;;;;;;;;;14.80;99.90;;;;;;5089071;28;19931;-50
2022/05/08 09:01:42;;;;;;;;;;;14.70;99.90;;;;;;5093963;28;19928;-49
2022/05/08 09:04:08;;;;;;;;;;;14.50;99.90;;;;;;5093328;28;20011;-48
2022/05/08 09:06:38;;;;;;;;;;;14.60;99.90;;;;;;5092514;28;20374;-47
2022/05/08 09:09:20;;;;;;;;;;;14.40;99.90;;;;;;5078149;28;19947;-49
2022/05/08 09:11:46;;;;;;;;;;;14.50;99.90;;;;;;5090961;28;19960;-51
2022/05/08 09:14:26;;;;;;;;;;;14.30;99.90;;;;;;5076763;28;19963;-48
2022/05/08 09:16:52;;;;;;;;;;;14.30;99.90;;;;;;5091865;28;19924;-52
2022/05/08 09:19:28;;;;;;;;;;;14.20;99.90;;;;;;5089550;28;19954;-49
2022/05/08 09:21:58;;;;;;;;;;;14.30;99.90;;;;;;5088944;28;19929;-50
2022/05/08 09:24:23;;;;;;;;;;;14.40;99.90;;;;;;5093206;28;20056;-51
2022/05/08 09:26:50;;;;;;;;;;;14.90;99.90;;;;;;5073356;28;20410;-49
2022/05/08 09:29:19;;;;;;;;;;;15.00;99.90;;;;;;5074893;28;20344;-49
2022/05/08 09:31:45;;;;;;;;;;;14.80;98.50;;;;;;5092999;28;19924;-49
2022/05/08 09:34:10;;;;;;;;;;;14.70;98.40;;;;;;5092970;28;19970;-52
2022/05/08 09:36:36;;;;;;;;;;;14.50;98.80;;;;;;5091422;28;19924;-51
2022/05/08 09:39:02;;;;;;;;;;;14.60;99.20;;;;;;5093044;28;19931;-49
2022/05/08 09:41:33;;;;;;;;;;;14.70;99.10;;;;;;5078586;28;19973;-48
2022/05/08 09:44:08;;;;;;;;;;;14.60;97.30;;;;;;5078236;28;19924;-50
2022/05/08 09:46:37;;;;;;;;;;;14.90;98.40;;;;;;5093651;28;19924;-49
2022/05/08 09:49:02;;;;;;;;;;;15.10;97.50;;;;;;5092238;28;20023;-50
2022/05/08 09:51:29;;;;;;;;;;;15.00;99.60;;;;;;5073311;28;20019;-49
2022/05/08 09:53:55;;;;;;;;;;;15.00;99.50;;;;;;5073521;28;19931;-52
2022/05/08 09:56:21;;;;;;;;;;;15.10;98.40;;;;;;5088773;28;19931;-51
2022/05/08 09:58:47;;;;;;;;;;;15.10;98.20;;;;;;5092500;28;20002;-50
2022/05/08 10:01:14;;;;;;;;;;;15.20;98.20;;;;;;5091304;28;20240;-51
2022/05/08 10:03:43;;;;;;;;;;;15.10;97.80;;;;;;5091703;28;20350;-53
2022/05/08 10:06:09;;;;;;;;;;;15.50;97.90;;;;;;5090643;28;20010;-53
2022/05/08 10:08:36;;;;;;;;;;;15.30;94.10;;;;;;5072015;28;20418;-50
2022/05/08 10:13:58;;;;;;;;;;;15.30;94.80;;;;;;5080957;28;19999;-50
2022/05/08 10:16:41;;;;;;;;;;;15.40;94.50;;;;;;5092114;28;20366;-49
2022/05/08 10:19:19;;;;;;;;;;;15.40;94.10;;;;;;5091962;28;19928;-50
2022/05/08 10:21:57;;;;;;;;;;;15.20;96.30;;;;;;5089843;28;19924;-49
2022/05/08 10:24:32;;;;;;;;;;;15.30;95.80;;;;;;5063130;28;19937;-48
2022/05/08 10:27:14;;;;;;;;;;;15.30;92.70;;;;;;5090127;28;19939;-48
2022/05/08 10:29:40;;;;;;;;;;;15.40;90.10;;;;;;5091495;28;19924;-50
2022/05/08 10:32:06;;;;;;;;;;;15.30;90.40;;;;;;5086869;28;20040;-50
2022/05/08 10:34:33;;;;;;;;;;;15.40;90.70;;;;;;5082889;28;20014;-49
2022/05/08 10:37:11;;;;;;;;;;;15.40;90.80;;;;;;5084645;28;19983;-53
2022/05/08 10:39:42;;;;;;;;;;;15.50;91.40;;;;;;5075731;28;19925;-51
2022/05/08 10:42:23;;;;;;;;;;;15.50;89.30;;;;;;5092471;28;19924;-47
2022/05/08 10:44:49;;;;;;;;;;;15.60;89.20;;;;;;5088357;28;20001;-48
2022/05/08 10:47:43;;;;;;;;;;;15.60;88.40;;;;;;5092351;28;20308;-51
2022/05/08 10:50:09;;;;;;;;;;;15.50;84.60;;;;;;5090464;28;19924;-48
2022/05/08 10:52:39;;;;;;;;;;;15.50;81.50;;;;;;5089540;28;19931;-47
2022/05/08 10:55:12;;;;;;;;;;;15.60;83.30;;;;;;5090446;28;19924;-48
2022/05/08 10:57:39;;;;;;;;;;;15.70;83.20;;;;;;5089668;28;19930;-49
2022/05/08 11:00:11;;;;;;;;;;;16.00;84.60;;;;;;5081061;28;19977;-49
2022/05/08 11:02:38;;;;;;;;;;;16.00;84.90;;;;;;5091364;28;19924;-47
2022/05/08 11:05:04;;;;;;;;;;;16.00;78.60;;;;;;5090604;28;20364;-50
2022/05/08 11:07:29;;;;;;;;;;;16.10;83.60;;;;;;5090810;28;20442;-47
2022/05/08 11:09:55;;;;;;;;;;;16.40;79.00;;;;;;5091393;28;20049;-48
2022/05/08 11:12:20;;;;;;;;;;;16.20;81.10;;;;;;5089015;28;19928;-48
2022/05/08 11:14:46;;;;;;;;;;;16.30;80.50;;;;;;5087856;28;20010;-48
2022/05/08 11:17:15;;;;;;;;;;;16.50;84.60;;;;;;5085873;28;19931;-48
2022/05/08 11:19:51;;;;;;;;;;;16.70;81.10;;;;;;5091249;28;19928;-49
2022/05/08 11:22:17;;;;;;;;;;;16.50;78.30;;;;;;5089085;28;20003;-48
2022/05/08 11:24:45;;;;;;;;;;;16.80;81.30;;;;;;5090529;28;20007;-48
2022/05/08 11:27:13;;;;;;;;;;;16.90;76.30;;;;;;5091771;28;20275;-49
2022/05/08 11:29:45;;;;;;;;;;;16.60;74.90;;;;;;5087791;28;19967;-48
2022/05/08 11:37:58;;;;;;;;;;;16.50;67.80;;;;;;5091653;28;19978;-50
2022/05/08 11:40:24;;;;;;;;;;;16.80;68.90;;;;;;5081515;28;20350;-50
2022/05/08 11:42:49;;;;;;;;;;;16.50;69.90;;;;;;5090395;28;20007;-47
2022/05/08 11:45:15;;;;;;;;;;;16.50;67.40;;;;;;5089836;28;20081;-50
2022/05/08 11:47:40;;;;;;;;;;;16.80;71.20;;;;;;5090350;28;20055;-51
2022/05/08 11:50:06;;;;;;;;;;;17.00;71.20;;;;;;5082686;28;20423;-51
2022/05/08 11:52:31;;;;;;;;;;;16.80;63.80;;;;;;5059560;28;20015;-49
2022/05/08 11:55:01;;;;;;;;;;;16.40;62.80;;;;;;5065217;28;19929;-50
2022/05/08 11:57:28;;;;;;;;;;;16.60;60.10;;;;;;5064259;28;20037;-52
2022/05/08 12:00:08;;;;;;;;;;;16.60;61.00;;;;;;5070741;28;19924;-49
2022/05/08 12:02:37;;;;;;;;;;;16.70;64.00;;;;;;5064809;28;19924;-50
2022/05/08 12:05:03;;;;;;;;;;;16.90;63.20;;;;;;5074015;28;21309;-50
2022/05/08 12:07:37;;;;;;;;;;;16.90;61.50;;;;;;5073109;28;20362;-52
2022/05/08 12:10:03;;;;;;;;;;;17.30;63.10;;;;;;5074172;28;19964;-51
2022/05/08 12:12:29;;;;;;;;;;;17.20;59.90;;;;;;5073533;28;20370;-52
2022/05/08 12:14:59;;;;;;;;;;;17.00;60.50;;;;;;5072410;28;20050;-50
2022/05/08 12:17:25;;;;;;;;;;;17.50;62.30;;;;;;5073875;28;20329;-51
2022/05/08 12:19:52;;;;;;;;;;;17.60;62.50;;;;;;5071868;28;19936;-49
2022/05/08 12:22:18;;;;;;;;;;;17.60;60.80;;;;;;5068394;28;20012;-49
2022/05/08 12:24:44;;;;;;;;;;;17.70;61.60;;;;;;5071633;28;20389;-49
2022/05/08 12:27:09;;;;;;;;;;;17.50;60.90;;;;;;5071452;28;19925;-52
2022/05/08 12:29:35;;;;;;;;;;;17.50;61.90;;;;;;5068391;28;19925;-50
2022/05/08 12:32:00;;;;;;;;;;;17.60;61.00;;;;;;5074661;28;20433;-53
2022/05/08 12:34:26;;;;;;;;;;;17.70;59.40;;;;;;5066202;28;19947;-52
2022/05/08 12:36:52;;;;;;;;;;;17.80;61.10;;;;;;5072522;28;19929;-51
2022/05/08 12:39:19;;;;;;;;;;;18.00;59.60;;;;;;5066534;28;20327;-49
2022/05/08 12:41:45;;;;;;;;;;;17.80;59.20;;;;;;5072406;28;19947;-52
2022/05/08 12:44:11;;;;;;;;;;;17.90;57.90;;;;;;5072177;28;20385;-50
2022/05/08 12:46:37;;;;;;;;;;;18.20;59.10;;;;;;5072884;28;19952;-49
2022/05/08 12:49:02;;;;;;;;;;;18.10;58.70;;;;;;5062677;28;19925;-52
2022/05/08 12:51:29;;;;;;;;;;;18.00;59.20;;;;;;5070370;28;20554;-48
2022/05/08 12:53:55;;;;;;;;;;;17.80;60.80;;;;;;5072355;28;19982;-51
2022/05/08 12:56:22;;;;;;;;;;;17.90;59.10;;;;;;5058970;28;21295;-49
2022/05/08 13:01:33;;;;;;;;;;;17.90;58.50;;;;;;5068970;28;19924;-50
2022/05/08 13:03:59;;;;;;;;;;;18.00;59.40;;;;;;5072685;28;19951;-49
2022/05/08 13:06:24;;;;;;;;;;;17.70;54.80;;;;;;5073095;28;19940;-49
2022/05/08 13:08:50;;;;;;;;;;;17.90;57.70;;;;;;5073545;28;20316;-49
2022/05/08 13:11:15;;;;;;;;;;;17.90;57.20;;;;;;5073088;28;20046;-49
2022/05/08 13:13:41;;;;;;;;;;;17.80;58.70;;;;;;5071197;28;19931;-53
2022/05/08 13:16:11;;;;;;;;;;;17.70;57.20;;;;;;5072158;28;19925;-51
2022/05/08 13:18:36;;;;;;;;;;;18.10;56.80;;;;;;5073746;28;19925;-50
2022/05/08 13:21:02;;;;;;;;;;;18.10;55.90;;;;;;5072704;28;20030;-52
2022/05/08 13:23:27;;;;;;;;;;;17.80;52.00;;;;;;5071528;28;19925;-51
2022/05/08 13:25:53;;;;;;;;;;;18.10;53.20;;;;;;5072038;28;19969;-53
2022/05/08 13:28:19;;;;;;;;;;;18.40;57.30;;;;;;5072924;28;19931;-50
2022/05/08 13:30:47;;;;;;;;;;;18.50;55.80;;;;;;5073366;28;19934;-50
2022/05/08 13:33:13;;;;;;;;;;;18.20;55.00;;;;;;5073709;28;20298;-52
2022/05/08 13:35:38;;;;;;;;;;;18.20;54.60;;;;;;5070860;28;20457;-51
2022/05/08 13:38:04;;;;;;;;;;;18.30;53.40;;;;;;5073719;28;19925;-51
2022/05/08 13:40:30;;;;;;;;;;;18.50;52.60;;;;;;5071003;28;19924;-50
2022/05/08 13:42:56;;;;;;;;;;;18.40;54.30;;;;;;5071518;28;19924;-52
2022/05/08 13:45:22;;;;;;;;;;;18.70;53.60;;;;;;5071309;28;20287;-51
2022/05/08 13:47:47;;;;;;;;;;;18.40;52.30;;;;;;5072600;28;20294;-51
2022/05/08 13:50:13;;;;;;;;;;;18.30;52.90;;;;;;5063378;28;20015;-49
2022/05/08 13:52:38;;;;;;;;;;;18.40;52.60;;;;;;5036077;28;20264;-50
2022/05/08 13:55:06;;;;;;;;;;;18.70;54.90;;;;;;5051417;28;19929;-49
2022/05/08 13:57:32;;;;;;;;;;;18.70;53.20;;;;;;5053311;28;19979;-52
2022/05/08 13:59:58;;;;;;;;;;;18.40;52.10;;;;;;5052346;28;19940;-49
2022/05/08 14:02:24;;;;;;;;;;;18.20;50.30;;;;;;5047808;28;19929;-50
2022/05/08 14:04:49;;;;;;;;;;;18.40;51.70;;;;;;5052608;28;20347;-52
2022/05/08 14:07:15;;;;;;;;;;;18.60;50.90;;;;;;5050554;28;20025;-50
2022/05/08 14:09:41;;;;;;;;;;;18.50;51.00;;;;;;5052580;28;19959;-49
2022/05/08 14:12:07;;;;;;;;;;;18.60;50.60;;;;;;5047689;28;19929;-53
2022/05/08 14:14:32;;;;;;;;;;;18.30;51.70;;;;;;5050548;28;19939;-52
2022/05/08 14:16:59;;;;;;;;;;;18.30;51.90;;;;;;5050433;28;19935;-52
2022/05/08 14:19:25;;;;;;;;;;;18.30;53.50;;;;;;5052344;28;19931;-52
2022/05/08 14:21:50;;;;;;;;;;;18.50;53.60;;;;;;5045688;28;20289;-51
2022/05/08 14:24:16;;;;;;;;;;;18.30;53.00;;;;;;5052867;28;19931;-51
2022/05/08 14:26:41;;;;;;;;;;;18.40;52.00;;;;;;5050085;28;20035;-53
2022/05/08 14:29:07;;;;;;;;;;;18.40;52.80;;;;;;5052355;28;20038;-53
2022/05/08 14:37:00;;;;;;;;;;;18.80;54.10;;;;;;5050256;28;19925;-54
2022/05/08 14:39:27;;;;;;;;;;;18.70;52.10;;;;;;5049974;28;19925;-52
2022/05/08 14:41:52;;;;;;;;;;;18.70;52.30;;;;;;5049575;28;20357;-50
2022/05/08 14:44:18;;;;;;;;;;;18.30;51.70;;;;;;5049978;28;19925;-50
2022/05/08 14:46:43;;;;;;;;;;;18.30;51.90;;;;;;5051758;28;20289;-51
2022/05/08 14:49:09;;;;;;;;;;;18.20;52.00;;;;;;5052230;28;19924;-54
2022/05/08 14:51:34;;;;;;;;;;;18.40;50.80;;;;;;5066313;28;19939;-50
2022/05/08 14:54:00;;;;;;;;;;;18.20;51.70;;;;;;5091722;28;20259;-51